sensor_id;sensor_type;location;lat;lon;timestamp;temperature;humidity
5280;DHT22;2663;53.588;10.010;2023-09-19T00:00:38;18.40;99.90
5280;DHT22;2663;53.588;10.010;2023-09-19T00:03:06;18.40;99.90
5280;DHT22;2663;53.588;10.010;2023-09-19T00:05:37;18.40;99.90
5280;DHT22;2663;53.588;10.010;2023-09-19T00:08:11;18.40;99.90
5280;DHT22;2663;53.588;10.010;2023-09-19T00:10:40;18.40;99.90
5280;DHT22;2663;53.588;10.010;2023-09-19T00:13:09;18.40;99.90
5280;DHT22;2663;53.588;10.010;2023-09-19T00:15:43;18.30;99.90
5280;DHT22;2663;53.588;10.010;2023-09-19T00:18:11;18.40;99.90
5280;DHT22;2663;53.588;10.010;2023-09-19T00:20:42;18.40;99.90
5280;DHT22;2663;53.588;10.010;2023-09-19T00:23:08;18.30;99.90
5280;DHT22;2663;53.588;10.010;2023-09-19T00:25:36;18.30;99.90
5280;DHT22;2663;53.588;10.010;2023-09-19T00:28:05;18.30;99.90
5280;DHT22;2663;53.588;10.010;2023-09-19T00:30:34;18.30;99.90
5280;DHT22;2663;53.588;10.010;2023-09-19T00:33:01;18.30;99.90
5280;DHT22;2663;53.588;10.010;2023-09-19T00:35:32;18.20;99.90
5280;DHT22;2663;53.588;10.010;2023-09-19T00:37:59;18.20;99.90
5280;DHT22;2663;53.588;10.010;2023-09-19T00:40:26;18.10;99.90
5280;DHT22;2663;53.588;10.010;2023-09-19T00:42:57;18.10;99.90
5280;DHT22;2663;53.588;10.010;2023-09-19T00:45:26;18.20;99.90
5280;DHT22;2663;53.588;10.010;2023-09-19T00:47:55;18.20;99.90
5280;DHT22;2663;53.588;10.010;2023-09-19T00:50:25;18.20;99.90
5280;DHT22;2663;53.588;10.010;2023-09-19T00:52:55;18.20;99.90
5280;DHT22;2663;53.588;10.010;2023-09-19T00:55:24;18.20;99.90
5280;DHT22;2663;53.588;10.010;2023-09-19T00:57:51;18.20;99.90
5280;DHT22;2663;53.588;10.010;2023-09-19T01:00:19;18.20;99.90
5280;DHT22;2663;53.588;10.010;2023-09-19T01:02:47;18.20;99.90
5280;DHT22;2663;53.588;10.010;2023-09-19T01:05:15;18.20;99.90
5280;DHT22;2663;53.588;10.010;2023-09-19T01:07:42;18.10;99.90
5280;DHT22;2663;53.588;10.010;2023-09-19T01:10:13;18.20;99.90
5280;DHT22;2663;53.588;10.010;2023-09-19T01:23:41;18.20;99.90
5280;DHT22;2663;53.588;10.010;2023-09-19T01:31:47;18.20;99.90
5280;DHT22;2663;53.588;10.010;2023-09-19T01:34:16;18.20;99.90
5280;DHT22;2663;53.588;10.010;2023-09-19T01:36:42;18.10;99.90
5280;DHT22;2663;53.588;10.010;2023-09-19T01:39:11;18.20;99.90
5280;DHT22;2663;53.588;10.010;2023-09-19T01:42:03;18.10;99.90
5280;DHT22;2663;53.588;10.010;2023-09-19T01:44:57;18.10;99.90
5280;DHT22;2663;53.588;10.010;2023-09-19T01:47:48;18.10;99.90
5280;DHT22;2663;53.588;10.010;2023-09-19T01:50:38;18.00;99.90
5280;DHT22;2663;53.588;10.010;2023-09-19T01:53:16;18.00;99.90
5280;DHT22;2663;53.588;10.010;2023-09-19T01:55:48;18.00;99.90
5280;DHT22;2663;53.588;10.010;2023-09-19T01:58:20;18.00;99.90
5280;DHT22;2663;53.588;10.010;2023-09-19T02:00:49;17.90;99.90
5280;DHT22;2663;53.588;10.010;2023-09-19T02:03:20;18.00;99.90
5280;DHT22;2663;53.588;10.010;2023-09-19T02:05:52;17.90;99.90
5280;DHT22;2663;53.588;10.010;2023-09-19T02:08:22;17.90;99.90
5280;DHT22;2663;53.588;10.010;2023-09-19T02:10:52;17.80;99.90
5280;DHT22;2663;53.588;10.010;2023-09-19T02:13:21;17.80;99.90
5280;DHT22;2663;53.588;10.010;2023-09-19T02:15:48;17.80;99.90
5280;DHT22;2663;53.588;10.010;2023-09-19T02:18:15;17.80;99.90
5280;DHT22;2663;53.588;10.010;2023-09-19T02:20:42;17.80;99.90
5280;DHT22;2663;53.588;10.010;2023-09-19T02:23:10;17.80;99.90
5280;DHT22;2663;53.588;10.010;2023-09-19T02:25:37;17.80;99.90
5280;DHT22;2663;53.588;10.010;2023-09-19T02:28:06;17.80;99.90
5280;DHT22;2663;53.588;10.010;2023-09-19T02:30:35;17.80;99.90
5280;DHT22;2663;53.588;10.010;2023-09-19T02:33:03;17.70;99.90
5280;DHT22;2663;53.588;10.010;2023-09-19T02:35:30;17.80;99.90
5280;DHT22;2663;53.588;10.010;2023-09-19T02:38:02;17.70;99.90
5280;DHT22;2663;53.588;10.010;2023-09-19T02:40:33;17.70;99.90
5280;DHT22;2663;53.588;10.010;2023-09-19T02:43:03;17.60;99.90
5280;DHT22;2663;53.588;10.010;2023-09-19T02:45:30;17.70;99.90
5280;DHT22;2663;53.588;10.010;2023-09-19T02:47:57;17.70;99.90
5280;DHT22;2663;53.588;10.010;2023-09-19T02:50:24;17.60;99.90
5280;DHT22;2663;53.588;10.010;2023-09-19T02:52:51;17.70;99.90
5280;DHT22;2663;53.588;10.010;2023-09-19T02:55:19;17.70;99.90
5280;DHT22;2663;53.588;10.010;2023-09-19T02:57:51;17.60;99.90
5280;DHT22;2663;53.588;10.010;2023-09-19T03:00:20;17.60;99.90
5280;DHT22;2663;53.588;10.010;2023-09-19T03:02:52;17.60;99.90
5280;DHT22;2663;53.588;10.010;2023-09-19T03:05:20;17.60;99.90
5280;DHT22;2663;53.588;10.010;2023-09-19T03:07:47;17.60;99.90
5280;DHT22;2663;53.588;10.010;2023-09-19T03:10:18;17.60;99.90
5280;DHT22;2663;53.588;10.010;2023-09-19T03:12:46;17.50;99.90
5280;DHT22;2663;53.588;10.010;2023-09-19T03:15:14;17.60;99.90
5280;DHT22;2663;53.588;10.010;2023-09-19T03:17:46;17.60;99.90
5280;DHT22;2663;53.588;10.010;2023-09-19T03:20:15;17.60;99.90
5280;DHT22;2663;53.588;10.010;2023-09-19T03:22:44;17.60;99.90
5280;DHT22;2663;53.588;10.010;2023-09-19T03:25:11;17.60;99.90
5280;DHT22;2663;53.588;10.010;2023-09-19T03:27:39;17.50;99.90
5280;DHT22;2663;53.588;10.010;2023-09-19T03:30:06;17.60;99.90
5280;DHT22;2663;53.588;10.010;2023-09-19T03:32:35;17.50;99.90
5280;DHT22;2663;53.588;10.010;2023-09-19T03:35:03;16.80;99.90
5280;DHT22;2663;53.588;10.010;2023-09-19T03:37:33;17.60;99.90
5280;DHT22;2663;53.588;10.010;2023-09-19T03:40:00;17.60;99.90
5280;DHT22;2663;53.588;10.010;2023-09-19T03:42:32;19.00;99.90
5280;DHT22;2663;53.588;10.010;2023-09-19T03:44:58;17.50;99.90
5280;DHT22;2663;53.588;10.010;2023-09-19T03:47:27;17.50;99.90
5280;DHT22;2663;53.588;10.010;2023-09-19T03:49:54;17.50;99.90
5280;DHT22;2663;53.588;10.010;2023-09-19T03:52:20;17.40;99.90
5280;DHT22;2663;53.588;10.010;2023-09-19T03:54:47;17.40;99.90
5280;DHT22;2663;53.588;10.010;2023-09-19T03:57:14;17.40;99.90
5280;DHT22;2663;53.588;10.010;2023-09-19T03:59:43;17.40;99.90
5280;DHT22;2663;53.588;10.010;2023-09-19T04:02:10;17.30;99.90
5280;DHT22;2663;53.588;10.010;2023-09-19T04:04:49;16.80;99.90
5280;DHT22;2663;53.588;10.010;2023-09-19T04:07:17;17.20;99.90
5280;DHT22;2663;53.588;10.010;2023-09-19T04:09:43;17.10;99.90
5280;DHT22;2663;53.588;10.010;2023-09-19T04:12:10;17.10;99.90
5280;DHT22;2663;53.588;10.010;2023-09-19T04:14:37;17.00;99.90
5280;DHT22;2663;53.588;10.010;2023-09-19T04:17:05;16.90;99.90
5280;DHT22;2663;53.588;10.010;2023-09-19T04:19:35;17.00;99.90
5280;DHT22;2663;53.588;10.010;2023-09-19T04:22:02;16.90;99.90
5280;DHT22;2663;53.588;10.010;2023-09-19T04:24:30;16.90;99.90
5280;DHT22;2663;53.588;10.010;2023-09-19T04:26:58;16.90;99.90
5280;DHT22;2663;53.588;10.010;2023-09-19T04:29:29;16.90;99.90
5280;DHT22;2663;53.588;10.010;2023-09-19T04:31:56;16.70;99.90
5280;DHT22;2663;53.588;10.010;2023-09-19T04:34:26;16.70;99.90
5280;DHT22;2663;53.588;10.010;2023-09-19T04:36:54;16.70;99.90
5280;DHT22;2663;53.588;10.010;2023-09-19T04:39:20;16.60;99.90
5280;DHT22;2663;53.588;10.010;2023-09-19T04:41:47;16.00;99.90
5280;DHT22;2663;53.588;10.010;2023-09-19T04:44:14;16.50;99.90
5280;DHT22;2663;53.588;10.010;2023-09-19T04:46:42;16.60;99.90
5280;DHT22;2663;53.588;10.010;2023-09-19T04:49:09;16.60;99.90
5280;DHT22;2663;53.588;10.010;2023-09-19T04:51:36;16.60;99.90
5280;DHT22;2663;53.588;10.010;2023-09-19T04:54:03;16.60;99.90
5280;DHT22;2663;53.588;10.010;2023-09-19T04:56:30;16.60;99.90
5280;DHT22;2663;53.588;10.010;2023-09-19T04:58:59;16.60;99.90
5280;DHT22;2663;53.588;10.010;2023-09-19T05:01:26;16.60;99.90
5280;DHT22;2663;53.588;10.010;2023-09-19T05:03:53;16.40;99.90
5280;DHT22;2663;53.588;10.010;2023-09-19T05:06:20;16.40;99.90
5280;DHT22;2663;53.588;10.010;2023-09-19T05:08:49;16.40;99.90
5280;DHT22;2663;53.588;10.010;2023-09-19T05:11:19;16.40;99.90
5280;DHT22;2663;53.588;10.010;2023-09-19T05:13:49;16.40;99.90
5280;DHT22;2663;53.588;10.010;2023-09-19T05:16:20;16.50;99.90
5280;DHT22;2663;53.588;10.010;2023-09-19T05:18:47;16.40;99.90
5280;DHT22;2663;53.588;10.010;2023-09-19T05:21:13;16.40;99.90
5280;DHT22;2663;53.588;10.010;2023-09-19T05:23:40;16.40;99.90
5280;DHT22;2663;53.588;10.010;2023-09-19T05:26:08;16.30;99.90
5280;DHT22;2663;53.588;10.010;2023-09-19T05:28:35;16.40;99.90
5280;DHT22;2663;53.588;10.010;2023-09-19T05:31:02;16.40;99.90
5280;DHT22;2663;53.588;10.010;2023-09-19T05:33:29;16.40;99.90
5280;DHT22;2663;53.588;10.010;2023-09-19T05:35:59;16.30;99.90
5280;DHT22;2663;53.588;10.010;2023-09-19T05:38:25;16.40;99.90
5280;DHT22;2663;53.588;10.010;2023-09-19T05:40:54;16.30;99.90
5280;DHT22;2663;53.588;10.010;2023-09-19T05:43:21;16.20;99.90
5280;DHT22;2663;53.588;10.010;2023-09-19T05:45:48;16.20;99.90
5280;DHT22;2663;53.588;10.010;2023-09-19T05:48:19;16.30;99.90
5280;DHT22;2663;53.588;10.010;2023-09-19T05:50:47;16.40;99.90
5280;DHT22;2663;53.588;10.010;2023-09-19T05:53:15;16.60;99.90
5280;DHT22;2663;53.588;10.010;2023-09-19T05:55:42;16.60;99.90
5280;DHT22;2663;53.588;10.010;2023-09-19T05:58:09;16.30;99.90
5280;DHT22;2663;53.588;10.010;2023-09-19T06:00:37;16.00;99.90
5280;DHT22;2663;53.588;10.010;2023-09-19T06:03:05;16.00;99.90
5280;DHT22;2663;53.588;10.010;2023-09-19T06:05:33;15.90;99.90
5280;DHT22;2663;53.588;10.010;2023-09-19T06:07:59;15.90;99.90
5280;DHT22;2663;53.588;10.010;2023-09-19T06:10:27;15.90;99.90
5280;DHT22;2663;53.588;10.010;2023-09-19T06:12:58;16.00;99.90
5280;DHT22;2663;53.588;10.010;2023-09-19T06:15:25;16.00;99.90
5280;DHT22;2663;53.588;10.010;2023-09-19T06:17:54;16.10;99.90
5280;DHT22;2663;53.588;10.010;2023-09-19T06:20:26;16.10;99.90
5280;DHT22;2663;53.588;10.010;2023-09-19T06:22:53;16.20;99.90
5280;DHT22;2663;53.588;10.010;2023-09-19T06:25:21;16.20;99.90
5280;DHT22;2663;53.588;10.010;2023-09-19T06:27:50;16.30;99.90
5280;DHT22;2663;53.588;10.010;2023-09-19T06:30:26;16.20;99.90
5280;DHT22;2663;53.588;10.010;2023-09-19T06:32:56;16.20;99.90
5280;DHT22;2663;53.588;10.010;2023-09-19T06:35:24;16.20;99.90
5280;DHT22;2663;53.588;10.010;2023-09-19T06:37:52;16.00;99.90
5280;DHT22;2663;53.588;10.010;2023-09-19T06:40:19;16.20;99.90
5280;DHT22;2663;53.588;10.010;2023-09-19T06:42:49;16.30;99.90
5280;DHT22;2663;53.588;10.010;2023-09-19T06:45:16;16.30;99.90
5280;DHT22;2663;53.588;10.010;2023-09-19T06:47:46;16.30;99.90
5280;DHT22;2663;53.588;10.010;2023-09-19T06:50:18;16.20;99.90
5280;DHT22;2663;53.588;10.010;2023-09-19T06:52:55;16.20;99.90
5280;DHT22;2663;53.588;10.010;2023-09-19T06:55:25;16.20;99.90
5280;DHT22;2663;53.588;10.010;2023-09-19T06:57:55;16.30;99.90
5280;DHT22;2663;53.588;10.010;2023-09-19T07:00:22;16.30;99.90
5280;DHT22;2663;53.588;10.010;2023-09-19T07:03:04;16.30;99.90
5280;DHT22;2663;53.588;10.010;2023-09-19T07:05:35;16.30;99.90
5280;DHT22;2663;53.588;10.010;2023-09-19T07:08:07;16.30;99.90
5280;DHT22;2663;53.588;10.010;2023-09-19T07:10:34;16.40;99.90
5280;DHT22;2663;53.588;10.010;2023-09-19T07:13:03;16.30;99.90
5280;DHT22;2663;53.588;10.010;2023-09-19T07:15:32;16.30;99.90
5280;DHT22;2663;53.588;10.010;2023-09-19T07:18:06;16.30;99.90
5280;DHT22;2663;53.588;10.010;2023-09-19T07:20:33;16.30;99.90
5280;DHT22;2663;53.588;10.010;2023-09-19T07:23:01;16.40;99.90
5280;DHT22;2663;53.588;10.010;2023-09-19T07:25:28;16.50;99.90
5280;DHT22;2663;53.588;10.010;2023-09-19T07:27:56;16.60;99.90
5280;DHT22;2663;53.588;10.010;2023-09-19T07:30:26;16.60;99.90
5280;DHT22;2663;53.588;10.010;2023-09-19T07:32:53;16.60;99.90
5280;DHT22;2663;53.588;10.010;2023-09-19T07:35:20;16.60;99.90
5280;DHT22;2663;53.588;10.010;2023-09-19T07:37:48;16.60;99.90
5280;DHT22;2663;53.588;10.010;2023-09-19T07:40:23;16.60;99.90
5280;DHT22;2663;53.588;10.010;2023-09-19T07:42:50;16.60;99.90
5280;DHT22;2663;53.588;10.010;2023-09-19T07:45:17;16.60;99.90
5280;DHT22;2663;53.588;10.010;2023-09-19T07:47:45;16.50;99.90
5280;DHT22;2663;53.588;10.010;2023-09-19T07:50:14;16.50;99.90
5280;DHT22;2663;53.588;10.010;2023-09-19T07:52:42;16.60;99.90
5280;DHT22;2663;53.588;10.010;2023-09-19T07:55:09;16.60;99.90
5280;DHT22;2663;53.588;10.010;2023-09-19T07:57:38;16.50;99.90
5280;DHT22;2663;53.588;10.010;2023-09-19T08:00:05;16.30;99.90
5280;DHT22;2663;53.588;10.010;2023-09-19T08:02:37;16.20;99.90
5280;DHT22;2663;53.588;10.010;2023-09-19T08:05:06;16.10;99.90
5280;DHT22;2663;53.588;10.010;2023-09-19T08:07:33;16.00;99.90
5280;DHT22;2663;53.588;10.010;2023-09-19T08:09:59;15.70;99.90
5280;DHT22;2663;53.588;10.010;2023-09-19T08:12:26;15.60;99.90
5280;DHT22;2663;53.588;10.010;2023-09-19T08:14:53;15.60;99.90
5280;DHT22;2663;53.588;10.010;2023-09-19T08:17:21;15.50;99.90
5280;DHT22;2663;53.588;10.010;2023-09-19T08:19:49;15.50;99.90
5280;DHT22;2663;53.588;10.010;2023-09-19T08:22:20;15.60;99.90
5280;DHT22;2663;53.588;10.010;2023-09-19T08:24:47;15.60;99.90
5280;DHT22;2663;53.588;10.010;2023-09-19T08:27:14;15.70;99.90
5280;DHT22;2663;53.588;10.010;2023-09-19T08:29:42;15.90;99.90
5280;DHT22;2663;53.588;10.010;2023-09-19T08:32:08;15.90;99.90
5280;DHT22;2663;53.588;10.010;2023-09-19T08:34:36;16.00;99.90
5280;DHT22;2663;53.588;10.010;2023-09-19T08:37:05;16.10;99.90
5280;DHT22;2663;53.588;10.010;2023-09-19T08:39:31;16.10;99.90
5280;DHT22;2663;53.588;10.010;2023-09-19T08:42:00;16.10;99.90
5280;DHT22;2663;53.588;10.010;2023-09-19T08:44:28;16.30;99.90
5280;DHT22;2663;53.588;10.010;2023-09-19T08:47:10;16.20;99.90
5280;DHT22;2663;53.588;10.010;2023-09-19T08:49:59;16.20;99.90
5280;DHT22;2663;53.588;10.010;2023-09-19T08:52:35;16.20;99.90
5280;DHT22;2663;53.588;10.010;2023-09-19T08:55:06;16.40;99.90
5280;DHT22;2663;53.588;10.010;2023-09-19T08:57:34;16.30;99.90
5280;DHT22;2663;53.588;10.010;2023-09-19T09:00:04;16.30;99.90
5280;DHT22;2663;53.588;10.010;2023-09-19T09:02:39;16.30;99.90
5280;DHT22;2663;53.588;10.010;2023-09-19T09:05:09;16.30;99.90
5280;DHT22;2663;53.588;10.010;2023-09-19T09:07:40;16.40;99.90
5280;DHT22;2663;53.588;10.010;2023-09-19T09:10:07;16.40;99.90
5280;DHT22;2663;53.588;10.010;2023-09-19T09:12:37;16.50;99.90
5280;DHT22;2663;53.588;10.010;2023-09-19T09:15:06;16.50;99.90
5280;DHT22;2663;53.588;10.010;2023-09-19T09:17:35;16.60;99.90
5280;DHT22;2663;53.588;10.010;2023-09-19T09:20:02;16.60;99.90
5280;DHT22;2663;53.588;10.010;2023-09-19T09:22:30;16.60;99.90
5280;DHT22;2663;53.588;10.010;2023-09-19T09:24:58;17.90;99.90
5280;DHT22;2663;53.588;10.010;2023-09-19T09:27:25;16.70;99.90
5280;DHT22;2663;53.588;10.010;2023-09-19T09:29:52;16.70;99.90
5280;DHT22;2663;53.588;10.010;2023-09-19T09:32:29;16.70;99.90
5280;DHT22;2663;53.588;10.010;2023-09-19T09:35:01;16.80;99.90
5280;DHT22;2663;53.588;10.010;2023-09-19T09:37:28;16.80;99.90
5280;DHT22;2663;53.588;10.010;2023-09-19T09:40:02;16.90;99.90
5280;DHT22;2663;53.588;10.010;2023-09-19T09:42:41;17.00;99.90
5280;DHT22;2663;53.588;10.010;2023-09-19T09:47:48;17.20;99.90
5280;DHT22;2663;53.588;10.010;2023-09-19T09:50:27;17.20;99.90
5280;DHT22;2663;53.588;10.010;2023-09-19T09:58:27;17.30;99.90
5280;DHT22;2663;53.588;10.010;2023-09-19T10:00:56;17.40;99.90
5280;DHT22;2663;53.588;10.010;2023-09-19T10:03:33;17.50;99.90
5280;DHT22;2663;53.588;10.010;2023-09-19T10:06:10;17.50;99.90
5280;DHT22;2663;53.588;10.010;2023-09-19T10:09:03;17.60;99.90
5280;DHT22;2663;53.588;10.010;2023-09-19T10:11:46;17.60;99.90
5280;DHT22;2663;53.588;10.010;2023-09-19T10:14:17;17.70;99.90
5280;DHT22;2663;53.588;10.010;2023-09-19T10:16:53;17.70;99.90
5280;DHT22;2663;53.588;10.010;2023-09-19T10:19:30;17.80;99.90
5280;DHT22;2663;53.588;10.010;2023-09-19T10:22:01;17.80;99.90
5280;DHT22;2663;53.588;10.010;2023-09-19T10:24:29;17.90;99.90
5280;DHT22;2663;53.588;10.010;2023-09-19T10:26:57;18.00;99.90
5280;DHT22;2663;53.588;10.010;2023-09-19T10:29:28;18.20;99.90
5280;DHT22;2663;53.588;10.010;2023-09-19T10:31:58;18.30;99.90
5280;DHT22;2663;53.588;10.010;2023-09-19T10:34:25;18.20;99.90
5280;DHT22;2663;53.588;10.010;2023-09-19T10:36:54;18.20;99.90
5280;DHT22;2663;53.588;10.010;2023-09-19T10:39:21;18.10;99.90
5280;DHT22;2663;53.588;10.010;2023-09-19T10:41:53;18.10;99.90
5280;DHT22;2663;53.588;10.010;2023-09-19T10:44:25;18.20;99.90
5280;DHT22;2663;53.588;10.010;2023-09-19T10:46:53;18.10;99.90
5280;DHT22;2663;53.588;10.010;2023-09-19T10:49:21;18.20;99.90
5280;DHT22;2663;53.588;10.010;2023-09-19T10:51:53;18.20;99.90
5280;DHT22;2663;53.588;10.010;2023-09-19T10:54:24;18.20;99.90
5280;DHT22;2663;53.588;10.010;2023-09-19T10:56:53;18.40;99.90
5280;DHT22;2663;53.588;10.010;2023-09-19T10:59:21;18.30;99.90
5280;DHT22;2663;53.588;10.010;2023-09-19T11:01:50;18.40;99.90
5280;DHT22;2663;53.588;10.010;2023-09-19T11:04:42;18.30;99.90
5280;DHT22;2663;53.588;10.010;2023-09-19T11:07:10;18.30;99.90
5280;DHT22;2663;53.588;10.010;2023-09-19T11:09:52;18.30;99.90
5280;DHT22;2663;53.588;10.010;2023-09-19T11:14:56;18.40;99.90
5280;DHT22;2663;53.588;10.010;2023-09-19T11:17:35;18.30;99.90
5280;DHT22;2663;53.588;10.010;2023-09-19T11:30:33;18.30;99.90
5280;DHT22;2663;53.588;10.010;2023-09-19T11:33:20;18.60;99.90
5280;DHT22;2663;53.588;10.010;2023-09-19T11:43:48;18.50;99.90
5280;DHT22;2663;53.588;10.010;2023-09-19T11:46:21;18.70;99.90
5280;DHT22;2663;53.588;10.010;2023-09-19T11:48:49;18.70;99.90
5280;DHT22;2663;53.588;10.010;2023-09-19T11:51:20;18.60;99.90
5280;DHT22;2663;53.588;10.010;2023-09-19T11:53:58;18.60;99.90
5280;DHT22;2663;53.588;10.010;2023-09-19T11:56:30;18.60;99.90
5280;DHT22;2663;53.588;10.010;2023-09-19T11:58:58;18.70;99.90
5280;DHT22;2663;53.588;10.010;2023-09-19T12:01:33;18.80;99.90
5280;DHT22;2663;53.588;10.010;2023-09-19T12:04:02;18.70;99.90
5280;DHT22;2663;53.588;10.010;2023-09-19T12:06:31;18.90;99.90
5280;DHT22;2663;53.588;10.010;2023-09-19T12:09:02;18.80;99.90
5280;DHT22;2663;53.588;10.010;2023-09-19T12:11:41;18.90;99.90
5280;DHT22;2663;53.588;10.010;2023-09-19T12:14:09;18.90;99.90
5280;DHT22;2663;53.588;10.010;2023-09-19T12:16:35;18.90;99.90
5280;DHT22;2663;53.588;10.010;2023-09-19T12:19:20;19.00;99.90
5280;DHT22;2663;53.588;10.010;2023-09-19T12:21:58;18.80;99.90
5280;DHT22;2663;53.588;10.010;2023-09-19T12:24:27;18.80;99.90
5280;DHT22;2663;53.588;10.010;2023-09-19T12:27:06;18.90;99.90
5280;DHT22;2663;53.588;10.010;2023-09-19T12:29:48;19.00;99.90
5280;DHT22;2663;53.588;10.010;2023-09-19T12:32:35;18.90;99.90
5280;DHT22;2663;53.588;10.010;2023-09-19T12:35:03;18.90;99.90
5280;DHT22;2663;53.588;10.010;2023-09-19T12:37:34;19.10;99.90
5280;DHT22;2663;53.588;10.010;2023-09-19T12:40:07;19.30;99.90
5280;DHT22;2663;53.588;10.010;2023-09-19T12:42:57;19.10;99.90
5280;DHT22;2663;53.588;10.010;2023-09-19T12:45:30;19.10;99.90
5280;DHT22;2663;53.588;10.010;2023-09-19T12:48:20;19.00;99.90
5280;DHT22;2663;53.588;10.010;2023-09-19T12:51:09;19.00;99.90
5280;DHT22;2663;53.588;10.010;2023-09-19T12:53:44;19.00;99.90
5280;DHT22;2663;53.588;10.010;2023-09-19T12:56:16;19.00;99.90
5280;DHT22;2663;53.588;10.010;2023-09-19T12:58:54;19.20;99.90
5280;DHT22;2663;53.588;10.010;2023-09-19T13:01:22;19.00;99.90
5280;DHT22;2663;53.588;10.010;2023-09-19T13:04:16;19.00;99.90
5280;DHT22;2663;53.588;10.010;2023-09-19T13:06:49;19.00;99.80
5280;DHT22;2663;53.588;10.010;2023-09-19T13:09:17;19.10;99.00
5280;DHT22;2663;53.588;10.010;2023-09-19T13:11:44;19.20;99.40
5280;DHT22;2663;53.588;10.010;2023-09-19T13:14:16;19.30;99.10
5280;DHT22;2663;53.588;10.010;2023-09-19T13:19:54;19.90;99.10
5280;DHT22;2663;53.588;10.010;2023-09-19T13:25:14;19.80;98.60
5280;DHT22;2663;53.588;10.010;2023-09-19T13:27:43;19.70;98.90
5280;DHT22;2663;53.588;10.010;2023-09-19T13:30:15;19.60;98.80
5280;DHT22;2663;53.588;10.010;2023-09-19T13:32:42;19.80;99.00
5280;DHT22;2663;53.588;10.010;2023-09-19T13:35:09;19.80;98.70
5280;DHT22;2663;53.588;10.010;2023-09-19T13:37:38;19.80;98.90
5280;DHT22;2663;53.588;10.010;2023-09-19T13:42:36;19.90;98.60
5280;DHT22;2663;53.588;10.010;2023-09-19T13:45:04;20.00;98.40
5280;DHT22;2663;53.588;10.010;2023-09-19T13:47:37;20.00;98.20
5280;DHT22;2663;53.588;10.010;2023-09-19T13:50:05;19.80;98.10
5280;DHT22;2663;53.588;10.010;2023-09-19T13:52:33;19.90;98.40
5280;DHT22;2663;53.588;10.010;2023-09-19T13:55:00;20.00;97.90
5280;DHT22;2663;53.588;10.010;2023-09-19T13:57:27;20.10;97.60
5280;DHT22;2663;53.588;10.010;2023-09-19T13:59:54;20.30;97.70
5280;DHT22;2663;53.588;10.010;2023-09-19T14:02:22;20.20;97.50
5280;DHT22;2663;53.588;10.010;2023-09-19T14:04:52;20.30;97.50
5280;DHT22;2663;53.588;10.010;2023-09-19T14:07:19;20.30;97.40
5280;DHT22;2663;53.588;10.010;2023-09-19T14:09:47;20.30;97.60
5280;DHT22;2663;53.588;10.010;2023-09-19T14:12:16;20.20;97.70
5280;DHT22;2663;53.588;10.010;2023-09-19T14:14:43;19.90;97.50
5280;DHT22;2663;53.588;10.010;2023-09-19T14:17:11;20.00;97.70
5280;DHT22;2663;53.588;10.010;2023-09-19T14:19:41;20.10;97.20
5280;DHT22;2663;53.588;10.010;2023-09-19T14:22:11;20.20;97.50
5280;DHT22;2663;53.588;10.010;2023-09-19T14:24:40;20.50;97.40
5280;DHT22;2663;53.588;10.010;2023-09-19T14:27:07;20.50;97.40
5280;DHT22;2663;53.588;10.010;2023-09-19T14:29:36;20.50;97.40
5280;DHT22;2663;53.588;10.010;2023-09-19T14:32:03;20.20;98.10
5280;DHT22;2663;53.588;10.010;2023-09-19T14:34:30;20.40;98.40
5280;DHT22;2663;53.588;10.010;2023-09-19T14:36:56;20.40;98.50
5280;DHT22;2663;53.588;10.010;2023-09-19T14:39:23;20.40;98.50
5280;DHT22;2663;53.588;10.010;2023-09-19T14:41:50;20.20;98.10
5280;DHT22;2663;53.588;10.010;2023-09-19T14:44:17;20.20;98.60
5280;DHT22;2663;53.588;10.010;2023-09-19T14:46:44;20.10;99.00
5280;DHT22;2663;53.588;10.010;2023-09-19T14:49:12;20.00;98.70
5280;DHT22;2663;53.588;10.010;2023-09-19T14:51:39;20.00;98.90
5280;DHT22;2663;53.588;10.010;2023-09-19T14:54:10;20.00;99.10
5280;DHT22;2663;53.588;10.010;2023-09-19T14:56:37;20.00;99.50
5280;DHT22;2663;53.588;10.010;2023-09-19T14:59:04;20.00;98.80
5280;DHT22;2663;53.588;10.010;2023-09-19T15:01:30;19.90;99.40
5280;DHT22;2663;53.588;10.010;2023-09-19T15:03:59;19.90;99.30
5280;DHT22;2663;53.588;10.010;2023-09-19T15:06:27;19.80;99.40
5280;DHT22;2663;53.588;10.010;2023-09-19T15:08:54;19.80;99.50
5280;DHT22;2663;53.588;10.010;2023-09-19T15:11:21;19.90;99.60
5280;DHT22;2663;53.588;10.010;2023-09-19T15:13:51;19.80;99.50
5280;DHT22;2663;53.588;10.010;2023-09-19T15:16:19;19.80;99.90
5280;DHT22;2663;53.588;10.010;2023-09-19T15:18:46;19.70;99.80
5280;DHT22;2663;53.588;10.010;2023-09-19T15:21:16;19.80;99.90
5280;DHT22;2663;53.588;10.010;2023-09-19T15:23:43;19.70;99.90
5280;DHT22;2663;53.588;10.010;2023-09-19T15:26:12;19.70;99.90
5280;DHT22;2663;53.588;10.010;2023-09-19T15:28:40;19.70;99.90
5280;DHT22;2663;53.588;10.010;2023-09-19T15:31:10;19.70;99.90
5280;DHT22;2663;53.588;10.010;2023-09-19T15:33:37;19.70;99.90
5280;DHT22;2663;53.588;10.010;2023-09-19T15:36:08;19.70;99.90
5280;DHT22;2663;53.588;10.010;2023-09-19T15:41:34;19.70;99.90
5280;DHT22;2663;53.588;10.010;2023-09-19T15:44:02;19.70;99.90
5280;DHT22;2663;53.588;10.010;2023-09-19T15:46:31;19.70;99.90
5280;DHT22;2663;53.588;10.010;2023-09-19T15:49:00;19.70;99.90
5280;DHT22;2663;53.588;10.010;2023-09-19T15:51:27;19.70;99.90
5280;DHT22;2663;53.588;10.010;2023-09-19T15:53:55;19.60;99.90
5280;DHT22;2663;53.588;10.010;2023-09-19T15:56:23;19.60;99.90
5280;DHT22;2663;53.588;10.010;2023-09-19T15:58:52;19.70;99.90
5280;DHT22;2663;53.588;10.010;2023-09-19T16:01:21;19.70;99.90
5280;DHT22;2663;53.588;10.010;2023-09-19T16:03:50;19.70;99.90
5280;DHT22;2663;53.588;10.010;2023-09-19T16:06:21;19.70;99.90
5280;DHT22;2663;53.588;10.010;2023-09-19T16:08:51;19.70;99.90
5280;DHT22;2663;53.588;10.010;2023-09-19T16:11:19;19.70;99.90
5280;DHT22;2663;53.588;10.010;2023-09-19T16:13:49;19.70;99.90
5280;DHT22;2663;53.588;10.010;2023-09-19T16:16:18;19.60;99.90
5280;DHT22;2663;53.588;10.010;2023-09-19T16:18:55;19.60;99.90
5280;DHT22;2663;53.588;10.010;2023-09-19T16:21:29;19.60;99.90
5280;DHT22;2663;53.588;10.010;2023-09-19T16:23:58;19.60;99.90
5280;DHT22;2663;53.588;10.010;2023-09-19T16:26:26;19.60;99.90
5280;DHT22;2663;53.588;10.010;2023-09-19T16:28:54;19.50;99.90
5280;DHT22;2663;53.588;10.010;2023-09-19T16:31:23;19.50;99.90
5280;DHT22;2663;53.588;10.010;2023-09-19T16:33:50;19.50;99.90
5280;DHT22;2663;53.588;10.010;2023-09-19T16:36:18;19.50;99.90
5280;DHT22;2663;53.588;10.010;2023-09-19T16:38:46;19.50;99.90
5280;DHT22;2663;53.588;10.010;2023-09-19T16:41:18;19.40;99.90
5280;DHT22;2663;53.588;10.010;2023-09-19T16:43:46;19.50;99.90
5280;DHT22;2663;53.588;10.010;2023-09-19T16:46:13;19.50;99.90
5280;DHT22;2663;53.588;10.010;2023-09-19T16:48:45;19.50;99.90
5280;DHT22;2663;53.588;10.010;2023-09-19T16:51:29;19.50;99.90
5280;DHT22;2663;53.588;10.010;2023-09-19T16:53:55;19.40;99.90
5280;DHT22;2663;53.588;10.010;2023-09-19T16:56:22;19.50;99.90
5280;DHT22;2663;53.588;10.010;2023-09-19T16:58:49;19.80;99.90